Norwegian Crown — C6II4 — position and weather

sailwx.info

Track history (hours):
 
Tides and Currents Weather Stations Pressure Air Temp Water Temp Dewpoint Dewpoint Depression Visibility Wind Speed Wind Dir Waves Ship Positions

Norwegian Crown

Operator: Norwegian Cruise Line

Last reported at 2019-Jan-20 06:16 UTC. Time now 2019-Jan-24 07:18 UTC.
Position N 49°35' W 004°03'.

Type: Ship. MMSI: 308785000.

Date/timePositionNaut miles runAvg speedWind from/ knotsBaromVisibWave heightAir tempDewpointWater temp
2019-Jan-20 06:16N 49°35' W 004°03'414.3
2019-Jan-20 06:00N 49°37' W 003°59'714.1
2019-Jan-20 05:30N 49°41' W 003°50'713.6
2019-Jan-20 05:00N 49°45' W 003°41'713.6
2019-Jan-20 04:30N 49°47' W 003°31'713.9
2019-Jan-20 04:01N 49°50' W 003°21'714.3
2019-Jan-20 03:31N 49°53' W 003°12'714.8
2019-Jan-20 03:00N 49°57' W 003°02'815.6
2019-Jan-20 02:31N 50°00' W 002°51'816.6
2019-Jan-20 02:01N 50°03' W 002°38'5318.3
2019-Jan-19 23:07N 50°21' W 001°20'217.7
2019-Jan-19 23:00N 50°22' W 001°18'817.0
2019-Jan-19 22:31N 50°27' W 001°08'816.4
2019-Jan-19 22:01N 50°34' W 001°00'714.1
2019-Jan-19 21:30N 50°41' W 000°58'5 9.9
2019-Jan-19 21:01N 50°44' W 001°04'714.4
2019-Jan-19 20:31N 50°46' W 001°15'5 9.7
2019-Jan-19 20:00N 50°50' W 001°19'5 9.0
2019-Jan-19 19:30N 50°53' W 001°24'1 1.4
2019-Jan-19 19:00N 50°54' W 001°25'0 0.0
2019-Jan-19 18:29N 50°54' W 001°25'0 0.0
2019-Jan-19 17:59N 50°54' W 001°25'0 0.0
2019-Jan-19 17:29N 50°54' W 001°25'0 0.0
2019-Jan-19 16:59N 50°54' W 001°25'0 0.0
2019-Jan-19 16:29N 50°54' W 001°25'0 0.0
2019-Jan-19 15:59N 50°54' W 001°25'0 0.0
2019-Jan-19 15:29N 50°54' W 001°25'0 0.0
2019-Jan-19 14:59N 50°54' W 001°25'0 0.0
2019-Jan-19 14:29N 50°54' W 001°25'0 0.0
2019-Jan-19 13:59N 50°54' W 001°25'0 0.0
2019-Jan-19 13:29N 50°54' W 001°25'0 0.0
2019-Jan-19 12:59N 50°54' W 001°25'0 0.0
2019-Jan-19 12:29N 50°54' W 001°25'0 0.0
2019-Jan-19 11:59N 50°54' W 001°25'0 0.0
2019-Jan-19 11:23N 50°54' W 001°25'0 0.0
2019-Jan-19 10:59N 50°54' W 001°25'0 0.0
2019-Jan-19 10:29N 50°54' W 001°25'0 0.0
2019-Jan-19 09:57N 50°54' W 001°25'0 0.0
2019-Jan-19 09:30N 50°54' W 001°25'0 0.0
2019-Jan-19 08:54N 50°54' W 001°25'0 0.0
2019-Jan-19 08:30N 50°54' W 001°25'0 0.0
2019-Jan-19 08:00N 50°54' W 001°25'0 0.0
2019-Jan-19 07:30N 50°54' W 001°25'0 0.0
2019-Jan-19 07:00N 50°54' W 001°25'0 0.0
2019-Jan-19 06:27N 50°54' W 001°25'0 0.0
2019-Jan-19 06:00N 50°54' W 001°25'0 0.0
2019-Jan-19 05:30N 50°54' W 001°25'0 0.7
2019-Jan-19 05:00N 50°54' W 001°25'611.2
2019-Jan-19 04:31N 50°50' W 001°19'5 9.3
2019-Jan-19 04:00N 50°46' W 001°14'713.7
2019-Jan-19 03:31N 50°44' W 001°04'611.6
2019-Jan-19 03:01N 50°39' W 000°58'3 6.9
2019-Jan-19 02:31N 50°36' W 000°58'4 8.4
2019-Jan-19 02:01N 50°32' W 000°56'4 8.3
2019-Jan-19 01:30N 50°28' W 000°58'611.6
2019-Jan-19 01:00N 50°26' W 001°06'611.5
2019-Jan-19 00:30N 50°24' W 001°15'3111.0
2019-Jan-18 21:39N 50°02' W 001°49'1114.1
2019-Jan-18 20:52N 49°60' W 002°05'1715.4
2019-Jan-18 19:45N 49°54' W 002°31'615.6
2019-Jan-18 19:22N 49°53' W 002°40'615.7
2019-Jan-18 19:00N 49°51' W 002°48'815.1
2019-Jan-18 18:30N 49°50' W 002°60'815.6
2019-Jan-18 18:00N 49°46' W 003°10'815.5
2019-Jan-18 17:30N 49°40' W 003°18'6716.0
2019-Jan-18 13:18N 48°59' W 004°40'516.4
2019-Jan-18 12:59N 48°55' W 004°46'816.3
2019-Jan-18 12:30N 48°50' W 004°55'816.2
2019-Jan-18 12:00N 48°44' W 005°03'816.0
2019-Jan-18 11:30N 48°40' W 005°13'816.7
2019-Jan-18 11:00N 48°33' W 005°21'816.8
2019-Jan-18 10:30N 48°26' W 005°28'1316.7
2019-Jan-18 09:43N 48°15' W 005°38'1216.2
2019-Jan-18 08:58N 48°04' W 005°47'  
2019-Jan-13 04:38N 28°18' W 015°22'1 7.2
2019-Jan-13 04:30N 28°18' W 015°23'4 8.4
2019-Jan-13 04:00N 28°18' W 015°27'5 9.3
2019-Jan-13 03:30N 28°18' W 015°33'6 9.5
2019-Jan-13 02:55N 28°17' W 015°39'7 9.6
2019-Jan-13 02:11N 28°16' W 015°47'4 9.7
2019-Jan-13 01:44N 28°15' W 015°52'3 9.7
2019-Jan-13 01:29N 28°15' W 015°54'5 9.4
2019-Jan-13 01:00N 28°16' W 015°59'510.1
2019-Jan-13 00:30N 28°20' W 016°04'510.3
2019-Jan-13 00:00N 28°23' W 016°08'510.7
2019-Jan-12 23:31N 28°27' W 016°12'3 4.7
2019-Jan-12 22:58N 28°28' W 016°15'0 0.0
2019-Jan-12 22:28N 28°28' W 016°15'0 0.0
2019-Jan-12 21:58N 28°28' W 016°15'0 0.0
2019-Jan-12 21:28N 28°28' W 016°15'0 0.0
2019-Jan-12 20:58N 28°28' W 016°15'0 0.0
2019-Jan-12 20:28N 28°28' W 016°15'0 0.0
2019-Jan-12 19:58N 28°28' W 016°15'0 0.0
2019-Jan-12 19:28N 28°28' W 016°15'0 0.0
2019-Jan-12 18:58N 28°28' W 016°15'0 0.0
2019-Jan-12 18:28N 28°28' W 016°15'0 0.0
2019-Jan-12 17:58N 28°28' W 016°15'0 0.0
2019-Jan-12 17:28N 28°28' W 016°15'0 0.0
2019-Jan-12 16:58N 28°28' W 016°15'0 0.0
2019-Jan-12 16:28N 28°28' W 016°15'0 0.0
2019-Jan-12 15:58N 28°28' W 016°15'0 0.0
2019-Jan-12 15:28N 28°28' W 016°15'0 0.0
2019-Jan-12 14:58N 28°28' W 016°15'0 0.0
2019-Jan-12 14:28N 28°28' W 016°15'0 0.0
2019-Jan-12 13:58N 28°28' W 016°15'0 0.0
2019-Jan-12 13:28N 28°28' W 016°15'0 0.0
2019-Jan-12 12:58N 28°28' W 016°15'0 0.0
2019-Jan-12 12:28N 28°28' W 016°15'0 0.0
2019-Jan-12 11:58N 28°28' W 016°15'0 0.0
2019-Jan-12 11:28N 28°28' W 016°15'0 0.0
2019-Jan-12 10:58N 28°28' W 016°15'0 0.0
2019-Jan-12 10:28N 28°28' W 016°15'0 0.0
2019-Jan-12 09:58N 28°28' W 016°15'0 0.0
2019-Jan-12 09:28N 28°28' W 016°15'0 0.0
2019-Jan-12 08:58N 28°28' W 016°15'0 0.0
2019-Jan-12 08:28N 28°28' W 016°15'0 0.0
2019-Jan-12 07:58N 28°28' W 016°15'0 0.4
2019-Jan-12 07:30N 28°28' W 016°15'1 2.7
2019-Jan-12 07:01N 28°29' W 016°13'4 7.2
2019-Jan-12 06:31N 28°28' W 016°09'4 7.8
2019-Jan-12 06:00N 28°28' W 016°04'4 8.3
2019-Jan-12 05:31N 28°30' W 016°01'5 9.5
2019-Jan-12 05:00N 28°35' W 016°00'  
Track history (hours):
 
Tides and Currents Weather Stations Pressure Air Temp Water Temp Dewpoint Dewpoint Depression Visibility Wind Speed Wind Dir Waves Ship Positions

Norwegian Crown

Operator: Norwegian Cruise Line

Last reported at 2019-Jan-20 06:16 UTC. Time now 2019-Jan-24 07:18 UTC.
Position N 49°35' W 004°03'.

Type: Ship. MMSI: 308785000.

Date/timePositionNaut miles runAvg speedWind from/ knotsBaromVisibWave heightAir tempDewpointWater temp
2019-Jan-20 06:16N 49°35' W 004°03'414.3
2019-Jan-20 06:00N 49°37' W 003°59'714.1
2019-Jan-20 05:30N 49°41' W 003°50'713.6
2019-Jan-20 05:00N 49°45' W 003°41'713.6
2019-Jan-20 04:30N 49°47' W 003°31'713.9
2019-Jan-20 04:01N 49°50' W 003°21'714.3
2019-Jan-20 03:31N 49°53' W 003°12'714.8
2019-Jan-20 03:00N 49°57' W 003°02'815.6
2019-Jan-20 02:31N 50°00' W 002°51'816.6
2019-Jan-20 02:01N 50°03' W 002°38'5318.3
2019-Jan-19 23:07N 50°21' W 001°20'217.7
2019-Jan-19 23:00N 50°22' W 001°18'817.0
2019-Jan-19 22:31N 50°27' W 001°08'816.4
2019-Jan-19 22:01N 50°34' W 001°00'714.1
2019-Jan-19 21:30N 50°41' W 000°58'5 9.9
2019-Jan-19 21:01N 50°44' W 001°04'714.4
2019-Jan-19 20:31N 50°46' W 001°15'5 9.7
2019-Jan-19 20:00N 50°50' W 001°19'5 9.0
2019-Jan-19 19:30N 50°53' W 001°24'1 1.4
2019-Jan-19 19:00N 50°54' W 001°25'0 0.0
2019-Jan-19 18:29N 50°54' W 001°25'0 0.0
2019-Jan-19 17:59N 50°54' W 001°25'0 0.0
2019-Jan-19 17:29N 50°54' W 001°25'0 0.0
2019-Jan-19 16:59N 50°54' W 001°25'0 0.0
2019-Jan-19 16:29N 50°54' W 001°25'0 0.0
2019-Jan-19 15:59N 50°54' W 001°25'0 0.0
2019-Jan-19 15:29N 50°54' W 001°25'0 0.0
2019-Jan-19 14:59N 50°54' W 001°25'0 0.0
2019-Jan-19 14:29N 50°54' W 001°25'0 0.0
2019-Jan-19 13:59N 50°54' W 001°25'0 0.0
2019-Jan-19 13:29N 50°54' W 001°25'0 0.0
2019-Jan-19 12:59N 50°54' W 001°25'0 0.0
2019-Jan-19 12:29N 50°54' W 001°25'0 0.0
2019-Jan-19 11:59N 50°54' W 001°25'0 0.0
2019-Jan-19 11:23N 50°54' W 001°25'0 0.0
2019-Jan-19 10:59N 50°54' W 001°25'0 0.0
2019-Jan-19 10:29N 50°54' W 001°25'0 0.0
2019-Jan-19 09:57N 50°54' W 001°25'0 0.0
2019-Jan-19 09:30N 50°54' W 001°25'0 0.0
2019-Jan-19 08:54N 50°54' W 001°25'0 0.0
2019-Jan-19 08:30N 50°54' W 001°25'0 0.0
2019-Jan-19 08:00N 50°54' W 001°25'0 0.0
2019-Jan-19 07:30N 50°54' W 001°25'0 0.0
2019-Jan-19 07:00N 50°54' W 001°25'0 0.0
2019-Jan-19 06:27N 50°54' W 001°25'0 0.0
2019-Jan-19 06:00N 50°54' W 001°25'0 0.0
2019-Jan-19 05:30N 50°54' W 001°25'0 0.7
2019-Jan-19 05:00N 50°54' W 001°25'611.2
2019-Jan-19 04:31N 50°50' W 001°19'5 9.3
2019-Jan-19 04:00N 50°46' W 001°14'713.7
2019-Jan-19 03:31N 50°44' W 001°04'611.6
2019-Jan-19 03:01N 50°39' W 000°58'3 6.9
2019-Jan-19 02:31N 50°36' W 000°58'4 8.4
2019-Jan-19 02:01N 50°32' W 000°56'4 8.3
2019-Jan-19 01:30N 50°28' W 000°58'611.6
2019-Jan-19 01:00N 50°26' W 001°06'611.5
2019-Jan-19 00:30N 50°24' W 001°15'3111.0
2019-Jan-18 21:39N 50°02' W 001°49'1114.1
2019-Jan-18 20:52N 49°60' W 002°05'1715.4
2019-Jan-18 19:45N 49°54' W 002°31'615.6
2019-Jan-18 19:22N 49°53' W 002°40'615.7
2019-Jan-18 19:00N 49°51' W 002°48'815.1
2019-Jan-18 18:30N 49°50' W 002°60'815.6
2019-Jan-18 18:00N 49°46' W 003°10'815.5
2019-Jan-18 17:30N 49°40' W 003°18'6716.0
2019-Jan-18 13:18N 48°59' W 004°40'516.4
2019-Jan-18 12:59N 48°55' W 004°46'816.3
2019-Jan-18 12:30N 48°50' W 004°55'816.2
2019-Jan-18 12:00N 48°44' W 005°03'816.0
2019-Jan-18 11:30N 48°40' W 005°13'816.7
2019-Jan-18 11:00N 48°33' W 005°21'816.8
2019-Jan-18 10:30N 48°26' W 005°28'1316.7
2019-Jan-18 09:43N 48°15' W 005°38'1216.2
2019-Jan-18 08:58N 48°04' W 005°47'  
2019-Jan-13 04:38N 28°18' W 015°22'1 7.2
2019-Jan-13 04:30N 28°18' W 015°23'4 8.4
2019-Jan-13 04:00N 28°18' W 015°27'5 9.3
2019-Jan-13 03:30N 28°18' W 015°33'6 9.5
2019-Jan-13 02:55N 28°17' W 015°39'7 9.6
2019-Jan-13 02:11N 28°16' W 015°47'4 9.7
2019-Jan-13 01:44N 28°15' W 015°52'3 9.7
2019-Jan-13 01:29N 28°15' W 015°54'5 9.4
2019-Jan-13 01:00N 28°16' W 015°59'510.1
2019-Jan-13 00:30N 28°20' W 016°04'510.3
2019-Jan-13 00:00N 28°23' W 016°08'510.7
2019-Jan-12 23:31N 28°27' W 016°12'3 4.7
2019-Jan-12 22:58N 28°28' W 016°15'0 0.0
2019-Jan-12 22:28N 28°28' W 016°15'0 0.0
2019-Jan-12 21:58N 28°28' W 016°15'0 0.0
2019-Jan-12 21:28N 28°28' W 016°15'0 0.0
2019-Jan-12 20:58N 28°28' W 016°15'0 0.0
2019-Jan-12 20:28N 28°28' W 016°15'0 0.0
2019-Jan-12 19:58N 28°28' W 016°15'0 0.0
2019-Jan-12 19:28N 28°28' W 016°15'0 0.0
2019-Jan-12 18:58N 28°28' W 016°15'0 0.0
2019-Jan-12 18:28N 28°28' W 016°15'0 0.0
2019-Jan-12 17:58N 28°28' W 016°15'0 0.0
2019-Jan-12 17:28N 28°28' W 016°15'0 0.0
2019-Jan-12 16:58N 28°28' W 016°15'0 0.0
2019-Jan-12 16:28N 28°28' W 016°15'0 0.0
2019-Jan-12 15:58N 28°28' W 016°15'0 0.0
2019-Jan-12 15:28N 28°28' W 016°15'0 0.0
2019-Jan-12 14:58N 28°28' W 016°15'0 0.0
2019-Jan-12 14:28N 28°28' W 016°15'0 0.0
2019-Jan-12 13:58N 28°28' W 016°15'0 0.0
2019-Jan-12 13:28N 28°28' W 016°15'0 0.0
2019-Jan-12 12:58N 28°28' W 016°15'0 0.0
2019-Jan-12 12:28N 28°28' W 016°15'0 0.0
2019-Jan-12 11:58N 28°28' W 016°15'0 0.0
2019-Jan-12 11:28N 28°28' W 016°15'0 0.0
2019-Jan-12 10:58N 28°28' W 016°15'0 0.0
2019-Jan-12 10:28N 28°28' W 016°15'0 0.0
2019-Jan-12 09:58N 28°28' W 016°15'0 0.0
2019-Jan-12 09:28N 28°28' W 016°15'0 0.0
2019-Jan-12 08:58N 28°28' W 016°15'0 0.0
2019-Jan-12 08:28N 28°28' W 016°15'0 0.0
2019-Jan-12 07:58N 28°28' W 016°15'0 0.4
2019-Jan-12 07:30N 28°28' W 016°15'1 2.7
2019-Jan-12 07:01N 28°29' W 016°13'4 7.2
2019-Jan-12 06:31N 28°28' W 016°09'4 7.8
2019-Jan-12 06:00N 28°28' W 016°04'4 8.3
2019-Jan-12 05:31N 28°30' W 016°01'5 9.5
2019-Jan-12 05:00N 28°35' W 016°00'  

Dump ship's entire track history